Bixby, Nebraska
Current Conditions -  °F | °C
As of 1:35 AM on Thursday 23 Oct 2014 (Local Time) from KAUH Reporting Station
Haze Haze  
Wind Chill: 59°   Ceiling: 1800
Heat Index: 59°   Visibility: 2.5mi
Dew Point: 59°   Wind: 7mph
Humidity: 100%   Direction: 340°NNW
Pressure: 30.05"   Gusts: NA
Location:  40.6539°N, 97.8811°W
Report Text: KAUH 230635Z AUTO 34006KT 2 1/2SM BR SCT002 OVC018 15/15 A3005 RMK AO2 T01490149
Loading
Personal Weather Stations






























Interactive Weather Map
Tropical Storm Tracking
New forecast layout! Learn more

10-Day Weather Forecast

Advertisements
Track Severe Weather on mobile